createdAt,value
2023-01-19T00:00:20.490Z,96831.78
2023-01-19T00:03:41.899Z,96830.18
2023-01-19T00:06:43.320Z,96822.42
2023-01-19T00:09:44.718Z,96821.99
2023-01-19T00:12:46.253Z,96822.32
2023-01-19T00:15:47.617Z,96818.41
2023-01-19T00:18:51.202Z,96822.70
2023-01-19T00:21:52.602Z,96814.23
2023-01-19T00:24:54.061Z,96807.55
2023-01-19T00:27:57.056Z,96805.48
2023-01-19T00:30:59.176Z,96805.48
2023-01-19T00:34:00.547Z,96804.67
2023-01-19T00:37:03.604Z,96803.58
2023-01-19T00:40:05.819Z,96805.77
2023-01-19T00:43:07.270Z,96802.05
2023-01-19T00:46:08.861Z,96801.95
2023-01-19T00:49:10.586Z,96800.13
2023-01-19T00:52:11.911Z,96797.87
2023-01-19T00:55:15.365Z,96788.86
2023-01-19T00:58:16.823Z,96781.84
2023-01-19T01:01:18.677Z,96779.58
2023-01-19T01:04:20.120Z,96777.41
2023-01-19T01:07:22.814Z,96773.69
2023-01-19T01:10:27.133Z,96773.89
2023-01-19T01:13:28.866Z,96766.55
2023-01-19T01:16:30.737Z,96764.55
2023-01-19T01:19:33.645Z,96753.31
2023-01-19T01:22:34.989Z,96749.44
2023-01-19T01:25:37.945Z,96745.11
2023-01-19T01:28:39.334Z,96736.17
2023-01-19T01:31:41.180Z,96733.92
2023-01-19T01:34:43.220Z,96732.89
2023-01-19T01:37:44.668Z,96734.49
2023-01-19T01:40:46.113Z,96728.16
2023-01-19T01:43:54.230Z,96726.60
2023-01-19T01:46:56.171Z,96723.27
2023-01-19T01:50:21.638Z,96719.67
2023-01-19T01:53:23.102Z,96712.65
2023-01-19T01:56:32.097Z,96704.39
2023-01-19T01:59:39.588Z,96700.02
2023-01-19T02:02:50.742Z,96700.49
2023-01-19T02:05:58.587Z,96694.42
2023-01-19T02:09:28.455Z,96696.66
2023-01-19T02:12:48.489Z,96687.59
2023-01-19T02:15:57.126Z,96685.84
2023-01-19T02:19:00.418Z,96686.34
2023-01-19T02:22:17.744Z,96689.81
2023-01-19T02:25:19.769Z,96691.79
2023-01-19T02:28:21.313Z,96689.67
2023-01-19T02:31:23.587Z,96675.08
2023-01-19T02:34:25.649Z,96681.39
2023-01-19T02:37:30.348Z,96688.47
2023-01-19T02:40:32.497Z,96687.15
2023-01-19T02:43:34.965Z,96694.40
2023-01-19T02:46:37.811Z,96705.41
2023-01-19T02:49:39.542Z,96710.23
2023-01-19T02:52:40.884Z,96714.01
2023-01-19T02:55:55.919Z,96710.65
2023-01-19T02:59:15.086Z,96703.18
2023-01-19T03:02:41.605Z,96695.17
2023-01-19T03:06:05.132Z,96682.90
2023-01-19T03:09:57.096Z,96688.63
2023-01-19T03:13:10.493Z,96684.87
2023-01-19T03:16:21.735Z,96678.12
2023-01-19T03:19:27.076Z,96672.18
2023-01-19T03:22:29.130Z,96676.02
2023-01-19T03:25:34.603Z,96657.83
2023-01-19T03:28:40.566Z,96647.19
2023-01-19T03:31:46.765Z,96652.21
2023-01-19T03:34:50.226Z,96662.27
2023-01-19T03:37:57.439Z,96661.42
2023-01-19T03:41:04.356Z,96643.77
2023-01-19T03:44:07.058Z,96634.38
2023-01-19T03:47:11.176Z,96651.30
2023-01-19T03:50:23.924Z,96681.39
2023-01-19T03:53:25.282Z,96694.59
2023-01-19T03:56:26.696Z,96702.26
2023-01-19T03:59:28.182Z,96705.52
2023-01-19T04:02:29.625Z,96710.27
2023-01-19T04:05:32.242Z,96717.89
2023-01-19T04:08:33.662Z,96703.83
2023-01-19T04:11:35.052Z,96681.79
2023-01-19T04:14:36.615Z,96650.77
2023-01-19T04:17:38.733Z,96620.36
2023-01-19T04:20:52.090Z,96594.00
2023-01-19T04:23:53.993Z,96591.38
2023-01-19T04:26:55.339Z,96593.45
2023-01-19T04:29:56.697Z,96589.40
2023-01-19T04:32:59.182Z,96595.01
2023-01-19T04:36:01.518Z,96606.41
2023-01-19T04:39:03.065Z,96631.70
2023-01-19T04:42:05.701Z,96643.27
2023-01-19T04:45:07.821Z,96640.65
2023-01-19T04:48:09.266Z,96624.86
2023-01-19T04:51:11.262Z,96626.61
2023-01-19T04:54:12.743Z,96621.80
2023-01-19T04:57:14.315Z,96614.48
2023-01-19T05:00:17.107Z,96618.24
2023-01-19T05:03:19.247Z,96616.87
2023-01-19T05:06:20.953Z,96614.46
2023-01-19T05:09:22.370Z,96629.84
2023-01-19T05:12:24.418Z,96623.52
2023-01-19T05:15:25.772Z,96614.80
2023-01-19T05:18:27.338Z,96606.06
2023-01-19T05:21:29.096Z,96607.08
2023-01-19T05:24:31.341Z,96597.98
2023-01-19T05:27:32.648Z,96587.08
2023-01-19T05:30:34.023Z,96593.17
2023-01-19T05:33:35.445Z,96599.24
2023-01-19T05:36:36.865Z,96597.73
2023-01-19T05:39:38.232Z,96607.91
2023-01-19T05:42:39.589Z,96629.58
2023-01-19T05:45:41.093Z,96649.88
2023-01-19T05:48:42.454Z,96647.63
2023-01-19T05:51:44.777Z,96637.33
2023-01-19T05:54:47.497Z,96641.70
2023-01-19T05:57:49.360Z,96659.42
2023-01-19T06:00:50.780Z,96658.95
2023-01-19T06:03:52.379Z,96655.52
2023-01-19T06:06:53.745Z,96651.96
2023-01-19T06:09:55.135Z,96645.25
2023-01-19T06:12:56.476Z,96640.58
2023-01-19T06:16:02.119Z,96638.09
2023-01-19T06:19:03.630Z,96645.64
2023-01-19T06:22:05.433Z,96644.88
2023-01-19T06:25:07.199Z,96647.30
2023-01-19T06:28:08.569Z,96647.70
2023-01-19T06:31:10.034Z,96648.40
2023-01-19T06:34:11.663Z,96646.42
2023-01-19T06:37:15.414Z,96647.17
2023-01-19T06:40:17.041Z,96638.20
2023-01-19T06:43:19.702Z,96623.58
2023-01-19T06:46:21.327Z,96617.65
2023-01-19T06:49:22.750Z,96614.30
2023-01-19T06:52:24.295Z,96615.55
2023-01-19T06:55:27.943Z,96618.70
2023-01-19T06:58:30.467Z,96617.38
2023-01-19T07:01:32.133Z,96620.02
2023-01-19T07:04:34.836Z,96628.19
2023-01-19T07:07:39.047Z,96636.08
2023-01-19T07:11:24.564Z,96631.59
2023-01-19T07:14:02.822Z,96626.05
2023-01-19T07:17:04.237Z,96632.31
2023-01-19T07:20:06.644Z,96647.23
2023-01-19T07:23:08.716Z,96661.05
2023-01-19T07:26:10.136Z,96655.80
2023-01-19T07:29:11.499Z,96653.52
2023-01-19T07:32:12.829Z,96660.77
2023-01-19T07:35:14.950Z,96668.73
2023-01-19T07:38:17.919Z,96670.67
2023-01-19T07:41:19.275Z,96665.40
2023-01-19T07:44:20.713Z,96662.46
2023-01-19T07:47:22.123Z,96661.33
2023-01-19T07:50:28.535Z,96663.02
2023-01-19T07:53:30.148Z,96661.79
2023-01-19T07:56:33.618Z,96654.95
2023-01-19T07:59:35.210Z,96653.33
2023-01-19T08:02:37.333Z,96651.23
2023-01-19T08:05:39.106Z,96649.46
2023-01-19T08:08:40.873Z,96651.84
2023-01-19T08:11:42.254Z,96657.35
2023-01-19T08:14:43.623Z,96659.97
2023-01-19T08:17:45.057Z,96657.94
2023-01-19T08:20:46.518Z,96673.89
2023-01-19T08:23:55.263Z,96676.55
2023-01-19T08:27:01.439Z,96666.58
2023-01-19T08:30:03.268Z,96653.63
2023-01-19T08:33:07.458Z,96647.91
2023-01-19T08:36:08.974Z,96638.86
2023-01-19T08:39:11.626Z,96645.41
2023-01-19T08:42:13.040Z,96653.89
2023-01-19T08:45:14.420Z,96643.10
2023-01-19T08:48:18.335Z,96656.17
2023-01-19T08:51:19.960Z,96659.77
2023-01-19T08:54:22.537Z,96652.51
2023-01-19T08:57:23.958Z,96656.27
2023-01-19T09:00:26.530Z,96660.71
2023-01-19T09:03:27.958Z,96657.04
2023-01-19T09:06:29.489Z,96664.38
2023-01-19T09:09:30.906Z,96654.25
2023-01-19T09:12:32.254Z,96656.57
2023-01-19T09:15:36.782Z,96657.54
2023-01-19T09:18:38.926Z,96658.60
2023-01-19T09:21:40.314Z,96653.10
2023-01-19T09:24:41.641Z,96650.80
2023-01-19T09:27:43.046Z,96642.95
2023-01-19T09:30:44.640Z,96642.08
2023-01-19T09:33:46.137Z,96644.64
2023-01-19T09:36:47.804Z,96645.98
2023-01-19T09:39:49.167Z,96649.02
2023-01-19T09:43:15.992Z,96652.06
2023-01-19T09:46:38.032Z,96649.39
2023-01-19T09:49:44.962Z,96649.38
2023-01-19T09:52:56.927Z,96650.41
2023-01-19T09:55:58.423Z,96655.48
2023-01-19T09:59:01.186Z,96654.71
2023-01-19T10:02:10.335Z,96655.45
2023-01-19T10:05:24.871Z,96655.42
2023-01-19T10:08:51.965Z,96651.27
2023-01-19T10:12:16.136Z,96650.38
2023-01-19T10:15:37.066Z,96649.85
2023-01-19T10:18:45.270Z,96654.66
2023-01-19T10:21:49.527Z,96651.80
2023-01-19T10:24:54.160Z,96648.41
2023-01-19T10:27:58.867Z,96647.28
2023-01-19T10:31:00.621Z,96642.08
2023-01-19T10:34:03.231Z,96637.03
2023-01-19T10:37:16.581Z,96633.95
2023-01-19T10:40:42.367Z,96625.88
2023-01-19T10:43:45.661Z,96627.71
2023-01-19T10:46:49.342Z,96635.59
2023-01-19T10:49:51.504Z,96641.16
2023-01-19T10:52:58.737Z,96643.06
2023-01-19T10:56:17.058Z,96638.84
2023-01-19T10:59:36.809Z,96645.35
2023-01-19T11:02:50.080Z,96648.84
2023-01-19T11:05:51.503Z,96651.35
2023-01-19T11:09:08.779Z,96656.83
2023-01-19T11:12:40.279Z,96658.66
2023-01-19T11:15:52.573Z,96656.35
2023-01-19T11:18:56.479Z,96660.14
2023-01-19T11:22:14.686Z,96665.33
2023-01-19T11:25:30.282Z,96670.52
2023-01-19T11:28:42.991Z,96667.12
2023-01-19T11:31:46.864Z,96670.77
2023-01-19T11:34:49.733Z,96667.66
2023-01-19T11:38:05.565Z,96663.88
2023-01-19T11:41:16.120Z,96666.15
2023-01-19T11:44:25.598Z,96662.13
2023-01-19T11:47:35.165Z,96662.19
2023-01-19T11:50:44.493Z,96659.60
2023-01-19T11:53:50.803Z,96662.34
2023-01-19T11:56:55.234Z,96666.71
2023-01-19T12:00:02.704Z,96673.84
2023-01-19T12:03:32.423Z,96671.92
2023-01-19T12:06:38.602Z,96675.81
2023-01-19T12:09:46.716Z,96679.14
2023-01-19T12:12:49.136Z,96674.11
2023-01-19T12:15:57.205Z,96675.58
2023-01-19T12:19:15.236Z,96674.43
2023-01-19T12:22:18.309Z,96675.91
2023-01-19T12:25:24.115Z,96681.67
2023-01-19T12:28:32.197Z,96683.39
2023-01-19T12:31:34.458Z,96688.72
2023-01-19T12:34:45.931Z,96689.30
2023-01-19T12:37:47.742Z,96694.48
2023-01-19T12:40:49.194Z,96697.27
2023-01-19T12:44:21.561Z,96698.80
2023-01-19T12:47:23.718Z,96707.71
2023-01-19T12:50:26.052Z,96713.98
2023-01-19T12:53:29.974Z,96715.52
2023-01-19T12:56:34.906Z,96715.98
2023-01-19T12:59:38.503Z,96722.05
2023-01-19T13:02:46.101Z,96727.08
2023-01-19T13:05:55.536Z,96731.17
2023-01-19T13:08:59.980Z,96738.59
2023-01-19T13:12:13.803Z,96740.42
2023-01-19T13:15:35.221Z,96745.11
2023-01-19T13:18:40.918Z,96753.07
2023-01-19T13:21:47.627Z,96763.05
2023-01-19T13:25:09.737Z,96772.88
2023-01-19T13:28:15.486Z,96773.23
2023-01-19T13:31:18.641Z,96770.94
2023-01-19T13:34:22.895Z,96770.86
2023-01-19T13:37:43.808Z,96774.45
2023-01-19T13:40:45.650Z,96774.04
2023-01-19T13:43:52.030Z,96780.48
2023-01-19T13:46:55.755Z,96782.90
2023-01-19T13:49:58.410Z,96789.61
2023-01-19T13:53:00.838Z,96795.64
2023-01-19T13:56:16.478Z,96797.80
2023-01-19T13:59:17.902Z,96802.36
2023-01-19T14:02:20.697Z,96804.96
2023-01-19T14:05:32.810Z,96804.66
2023-01-19T14:08:34.270Z,96810.89
2023-01-19T14:11:36.150Z,96810.09
2023-01-19T14:14:37.951Z,96807.17
2023-01-19T14:17:41.405Z,96811.01
2023-01-19T14:21:06.839Z,96815.84
2023-01-19T14:24:19.511Z,96821.80
2023-01-19T14:27:24.287Z,96827.77
2023-01-19T14:30:26.228Z,96825.56
2023-01-19T14:33:46.320Z,96827.48
2023-01-19T14:36:50.966Z,96829.77
2023-01-19T14:39:57.847Z,96835.16
2023-01-19T14:43:05.065Z,96835.90
2023-01-19T14:46:06.522Z,96839.79
2023-01-19T14:49:20.570Z,96844.50
2023-01-19T14:52:30.599Z,96852.21
2023-01-19T14:55:50.002Z,96859.34
2023-01-19T14:58:51.566Z,96868.78
2023-01-19T15:01:53.147Z,96871.48
2023-01-19T15:04:57.050Z,96870.58
2023-01-19T15:07:58.533Z,96870.21
2023-01-19T15:11:10.117Z,96869.52
2023-01-19T15:14:13.882Z,96870.78
2023-01-19T15:17:24.513Z,96875.80
2023-01-19T15:20:26.018Z,96885.11
2023-01-19T15:23:28.931Z,96888.09
2023-01-19T15:26:30.399Z,96888.53
2023-01-19T15:29:32.362Z,96890.16
2023-01-19T15:32:33.816Z,96894.94
2023-01-19T15:35:35.200Z,96903.77
2023-01-19T15:38:36.538Z,96908.50
2023-01-19T15:41:39.489Z,96910.54
2023-01-19T15:44:40.907Z,96923.07
2023-01-19T15:47:42.385Z,96933.31
2023-01-19T15:50:44.739Z,96937.20
2023-01-19T15:53:47.721Z,96939.41
2023-01-19T15:56:50.257Z,96936.95
2023-01-19T15:59:52.756Z,96940.77
2023-01-19T16:02:54.385Z,96942.03
2023-01-19T16:05:59.811Z,96941.64
2023-01-19T16:09:03.141Z,96943.44
2023-01-19T16:12:04.744Z,96941.83
2023-01-19T16:15:06.607Z,96933.91
2023-01-19T16:18:08.022Z,96927.64
2023-01-19T16:21:09.609Z,96928.80
2023-01-19T16:24:11.106Z,96940.79
2023-01-19T16:27:12.504Z,96945.27
2023-01-19T16:30:15.658Z,96953.27
2023-01-19T16:33:17.044Z,96966.14
2023-01-19T16:36:24.721Z,96988.58
2023-01-19T16:39:26.039Z,96999.52
2023-01-19T16:42:27.456Z,96980.77
2023-01-19T16:45:28.825Z,96973.55
2023-01-19T16:48:31.567Z,96975.70
2023-01-19T16:51:33.129Z,96980.17
2023-01-19T16:54:34.577Z,96981.23
2023-01-19T16:57:40.667Z,96978.48
2023-01-19T17:00:42.127Z,96987.02
2023-01-19T17:03:44.094Z,96991.73
2023-01-19T17:06:49.453Z,96990.48
2023-01-19T17:09:51.867Z,96980.06
2023-01-19T17:12:53.373Z,96984.11
2023-01-19T17:16:00.166Z,96986.43
2023-01-19T17:19:04.155Z,97001.81
2023-01-19T17:22:05.871Z,97019.05
2023-01-19T17:25:07.673Z,97025.98
2023-01-19T17:28:09.091Z,97030.70
2023-01-19T17:31:13.218Z,97035.25
2023-01-19T17:34:14.678Z,97047.77
2023-01-19T17:37:16.105Z,97059.12
2023-01-19T17:40:17.657Z,97062.66
2023-01-19T17:43:19.007Z,97071.88
2023-01-19T17:46:23.814Z,97078.91
2023-01-19T17:49:25.276Z,97083.92
2023-01-19T17:52:26.797Z,97094.54
2023-01-19T17:55:28.227Z,97114.09
2023-01-19T17:58:30.886Z,97114.59
2023-01-19T18:01:33.070Z,97109.30
2023-01-19T18:04:37.565Z,97113.91
2023-01-19T18:07:39.253Z,97117.98
2023-01-19T18:10:41.705Z,97123.39
2023-01-19T18:13:44.708Z,97140.21
2023-01-19T18:16:46.326Z,97144.13
2023-01-19T18:19:48.440Z,97150.38
2023-01-19T18:22:50.512Z,97161.95
2023-01-19T18:26:12.207Z,97168.45
2023-01-19T18:29:15.938Z,97174.94
2023-01-19T18:32:17.416Z,97170.11
2023-01-19T18:35:18.858Z,97174.61
2023-01-19T18:38:20.440Z,97186.07
2023-01-19T18:41:21.873Z,97189.08
2023-01-19T18:44:23.356Z,97193.75
2023-01-19T18:47:24.747Z,97194.22
2023-01-19T18:50:26.199Z,97194.03
2023-01-19T18:53:27.549Z,97190.38
2023-01-19T18:56:29.032Z,97192.29
2023-01-19T18:59:30.385Z,97200.89
2023-01-19T19:02:32.499Z,97207.06
2023-01-19T19:05:34.017Z,97208.23
2023-01-19T19:08:35.567Z,97212.86
2023-01-19T19:11:37.015Z,97214.30
2023-01-19T19:14:38.512Z,97210.88
2023-01-19T19:17:39.902Z,97204.31
2023-01-19T19:20:42.594Z,97196.36
2023-01-19T19:23:53.185Z,97201.20
2023-01-19T19:26:54.743Z,97198.71
2023-01-19T19:29:56.146Z,97200.48
2023-01-19T19:32:59.235Z,97197.36
2023-01-19T19:36:01.099Z,97197.92
2023-01-19T19:39:05.624Z,97197.20
2023-01-19T19:42:07.114Z,97199.02
2023-01-19T19:45:09.327Z,97200.26
2023-01-19T19:48:10.702Z,97200.44
2023-01-19T19:51:19.250Z,97197.65
2023-01-19T19:54:21.017Z,97202.00
2023-01-19T19:57:22.488Z,97203.36
2023-01-19T20:00:23.978Z,97202.80
2023-01-19T20:03:26.438Z,97205.48
2023-01-19T20:06:27.864Z,97213.98
2023-01-19T20:09:29.295Z,97219.65
2023-01-19T20:12:30.686Z,97221.92
2023-01-19T20:15:36.277Z,97224.39
2023-01-19T20:18:39.711Z,97229.92
2023-01-19T20:21:43.394Z,97233.49
2023-01-19T20:24:44.803Z,97238.70
2023-01-19T20:27:46.782Z,97240.77
2023-01-19T20:30:48.185Z,97246.71
2023-01-19T20:33:51.296Z,97257.64
2023-01-19T20:36:53.261Z,97265.95
2023-01-19T20:39:54.804Z,97270.52
2023-01-19T20:42:56.148Z,97272.90
2023-01-19T20:45:58.055Z,97281.94
2023-01-19T20:48:59.422Z,97291.15
2023-01-19T20:52:01.376Z,97302.36
2023-01-19T20:55:03.243Z,97303.17
2023-01-19T20:58:04.978Z,97308.36
2023-01-19T21:01:21.006Z,97314.40
2023-01-19T21:04:22.594Z,97316.29
2023-01-19T21:07:24.042Z,97321.13
2023-01-19T21:10:25.788Z,97322.11
2023-01-19T21:13:27.439Z,97330.98
2023-01-19T21:16:32.932Z,97333.11
2023-01-19T21:19:34.492Z,97333.69
2023-01-19T21:22:35.850Z,97336.52
2023-01-19T21:25:37.653Z,97345.30
2023-01-19T21:28:39.706Z,97354.45
2023-01-19T21:31:41.501Z,97358.46
2023-01-19T21:34:43.698Z,97363.07
2023-01-19T21:37:45.143Z,97359.35
2023-01-19T21:40:46.913Z,97358.79
2023-01-19T21:43:48.254Z,97361.50
2023-01-19T21:46:49.646Z,97363.75
2023-01-19T21:49:50.958Z,97355.96
2023-01-19T21:52:52.343Z,97355.98
2023-01-19T21:55:53.890Z,97352.91
2023-01-19T21:58:56.677Z,97357.97
2023-01-19T22:01:58.607Z,97361.36
2023-01-19T22:05:00.506Z,97359.91
2023-01-19T22:08:01.998Z,97362.75
2023-01-19T22:11:08.299Z,97357.14
2023-01-19T22:14:10.799Z,97362.42
2023-01-19T22:17:12.219Z,97367.55
2023-01-19T22:20:13.635Z,97373.64
2023-01-19T22:23:15.096Z,97379.33
2023-01-19T22:26:17.365Z,97383.24
2023-01-19T22:29:18.950Z,97384.33
2023-01-19T22:32:20.359Z,97385.36
2023-01-19T22:35:21.735Z,97397.23
2023-01-19T22:38:23.096Z,97411.03
2023-01-19T22:41:33.916Z,97419.73
2023-01-19T22:44:35.426Z,97422.02
2023-01-19T22:47:36.797Z,97417.89
2023-01-19T22:50:38.095Z,97397.08
2023-01-19T22:53:39.985Z,97384.34
2023-01-19T22:56:42.207Z,97391.91
2023-01-19T22:59:43.635Z,97415.20
2023-01-19T23:02:45.000Z,97422.48
2023-01-19T23:05:46.528Z,97416.27
2023-01-19T23:08:47.949Z,97405.08
2023-01-19T23:11:50.680Z,97401.20
2023-01-19T23:14:52.094Z,97399.80
2023-01-19T23:17:53.509Z,97397.46
2023-01-19T23:20:55.111Z,97391.94
2023-01-19T23:23:59.084Z,97398.09
2023-01-19T23:27:01.574Z,97397.45
2023-01-19T23:30:03.457Z,97397.46
2023-01-19T23:33:04.833Z,97393.32
2023-01-19T23:36:07.939Z,97387.35
2023-01-19T23:39:19.979Z,97392.02
2023-01-19T23:42:21.515Z,97395.96
2023-01-19T23:45:23.009Z,97393.04
2023-01-19T23:48:24.376Z,97389.97
2023-01-19T23:51:28.064Z,97388.08
2023-01-19T23:54:29.407Z,97389.84
2023-01-19T23:57:30.758Z,97392.44
